createdAt,value
2023-03-11T00:00:48.974Z,24.60
2023-03-11T00:03:29.098Z,24.30
2023-03-11T00:05:58.839Z,23.20
2023-03-11T00:08:26.825Z,19.70
2023-03-11T00:10:56.709Z,23.10
2023-03-11T00:13:24.982Z,30.30
2023-03-11T00:16:00.521Z,33.00
2023-03-11T00:18:31.698Z,32.00
2023-03-11T00:21:01.242Z,23.20
2023-03-11T00:23:29.739Z,22.30
2023-03-11T00:25:59.952Z,27.10
2023-03-11T00:28:28.082Z,26.20
2023-03-11T00:30:56.136Z,27.10
2023-03-11T00:33:24.189Z,23.60
2023-03-11T00:35:52.192Z,17.30
2023-03-11T00:38:21.617Z,18.50
2023-03-11T00:40:50.179Z,16.50
2023-03-11T00:43:18.502Z,24.90
2023-03-11T00:45:52.242Z,17.30
2023-03-11T00:51:54.475Z,13.10
2023-03-11T00:55:03.347Z,11.80
2023-03-11T00:57:36.959Z,11.70
2023-03-11T01:00:16.308Z,12.20
2023-03-11T01:02:49.616Z,12.50
2023-03-11T01:05:30.705Z,13.90
2023-03-11T01:08:22.635Z,6.90
2023-03-11T01:11:08.788Z,7.00
2023-03-11T01:13:43.733Z,6.60
2023-03-11T01:16:16.701Z,6.40
2023-03-11T01:18:52.522Z,6.80
2023-03-11T01:21:26.100Z,6.00
2023-03-11T01:26:51.508Z,5.70
2023-03-11T01:29:25.113Z,5.60
2023-03-11T01:32:19.682Z,5.00
2023-03-11T01:38:30.324Z,5.30
2023-03-11T01:41:04.337Z,6.00
2023-03-11T01:43:57.030Z,5.90
2023-03-11T01:56:45.633Z,4.30
2023-03-11T01:59:54.342Z,4.20
2023-03-11T02:05:40.369Z,4.20
2023-03-11T02:08:15.567Z,4.70
2023-03-11T02:10:51.235Z,4.70
2023-03-11T02:13:24.366Z,5.60
2023-03-11T02:16:00.794Z,4.90
2023-03-11T02:18:50.150Z,4.30
2023-03-11T02:21:32.963Z,4.80
2023-03-11T02:24:35.893Z,4.80
2023-03-11T02:27:12.812Z,3.90
2023-03-11T02:29:51.635Z,4.10
2023-03-11T02:32:30.553Z,4.90
2023-03-11T02:35:23.447Z,4.10
2023-03-11T02:41:30.088Z,4.50
2023-03-11T02:44:03.934Z,4.80
2023-03-11T02:46:41.623Z,4.40
2023-03-11T02:49:10.928Z,8.20
2023-03-11T02:51:39.567Z,8.10
2023-03-11T02:54:08.022Z,6.10
2023-03-11T02:56:36.623Z,3.80
2023-03-11T02:59:05.009Z,5.80
2023-03-11T03:01:33.047Z,4.10
2023-03-11T03:04:01.191Z,3.50
2023-03-11T03:06:32.992Z,3.70
2023-03-11T03:09:01.053Z,4.10
2023-03-11T03:11:29.122Z,4.70
2023-03-11T03:13:57.623Z,4.30
2023-03-11T03:16:31.433Z,4.10
2023-03-11T03:19:05.077Z,4.30
2023-03-11T03:21:33.159Z,3.50
2023-03-11T03:24:01.267Z,5.50
2023-03-11T03:26:29.212Z,3.70
2023-03-11T03:28:57.705Z,6.30
2023-03-11T03:31:25.746Z,3.90
2023-03-11T03:33:53.786Z,6.30
2023-03-11T03:36:21.860Z,3.80
2023-03-11T03:39:30.406Z,5.10
2023-03-11T03:41:58.828Z,4.80
2023-03-11T03:44:28.118Z,3.50
2023-03-11T03:46:56.141Z,4.60
2023-03-11T03:49:24.114Z,4.20
2023-03-11T03:51:52.560Z,3.80
2023-03-11T03:54:33.421Z,4.50
2023-03-11T03:57:06.660Z,3.70
2023-03-11T03:59:37.401Z,3.50
2023-03-11T04:02:05.819Z,4.10
2023-03-11T04:04:36.751Z,7.50
2023-03-11T04:07:10.657Z,5.10
2023-03-11T04:09:40.664Z,4.00
2023-03-11T04:12:15.713Z,4.00
2023-03-11T04:14:44.493Z,4.20
2023-03-11T04:17:13.523Z,3.60
2023-03-11T04:19:41.694Z,4.40
2023-03-11T04:22:11.406Z,3.90
2023-03-11T04:24:40.138Z,3.70
2023-03-11T04:27:08.141Z,4.00
2023-03-11T04:29:37.711Z,4.10
2023-03-11T04:32:05.994Z,4.70
2023-03-11T04:34:34.471Z,4.40
2023-03-11T04:37:02.696Z,4.40
2023-03-11T04:39:33.007Z,4.30
2023-03-11T04:42:03.872Z,4.20
2023-03-11T04:44:37.840Z,4.20
2023-03-11T04:47:11.518Z,3.70
2023-03-11T04:49:40.076Z,5.30
2023-03-11T04:52:08.163Z,3.40
2023-03-11T04:54:42.344Z,3.70
2023-03-11T04:57:15.863Z,4.30
2023-03-11T04:59:49.706Z,6.30
2023-03-11T05:02:18.648Z,4.30
2023-03-11T05:05:26.449Z,3.90
2023-03-11T05:08:00.127Z,4.40
2023-03-11T05:10:47.369Z,4.40
2023-03-11T05:13:21.849Z,4.00
2023-03-11T05:15:56.009Z,4.10
2023-03-11T05:18:32.611Z,3.70
2023-03-11T05:21:00.947Z,3.50
2023-03-11T05:23:30.193Z,6.20
2023-03-11T05:26:06.006Z,6.80
2023-03-11T05:28:39.707Z,7.60
2023-03-11T05:31:13.713Z,5.80
2023-03-11T05:36:25.541Z,4.40
2023-03-11T05:38:53.712Z,3.90
2023-03-11T05:41:28.060Z,3.50
2023-03-11T05:44:02.103Z,3.80
2023-03-11T05:49:29.918Z,4.00
2023-03-11T05:52:06.312Z,4.30
2023-03-11T05:54:34.632Z,3.00
2023-03-11T05:57:02.761Z,4.20
2023-03-11T05:59:32.578Z,6.00
2023-03-11T06:02:03.982Z,15.40
2023-03-11T06:04:38.037Z,5.20
2023-03-11T06:07:13.233Z,3.10
2023-03-11T06:12:12.625Z,7.20
2023-03-11T06:15:13.018Z,3.70
2023-03-11T06:17:41.222Z,3.80
2023-03-11T06:20:10.128Z,3.60
2023-03-11T06:22:40.150Z,3.20
2023-03-11T06:25:09.270Z,3.90
2023-03-11T06:27:47.884Z,3.70
2023-03-11T06:30:16.318Z,3.90
2023-03-11T06:32:52.535Z,3.20
2023-03-11T06:35:21.244Z,3.80
2023-03-11T06:37:49.206Z,3.80
2023-03-11T06:40:22.707Z,4.10
2023-03-11T06:42:50.728Z,5.50
2023-03-11T06:45:25.066Z,4.50
2023-03-11T06:50:35.532Z,6.00
2023-03-11T06:53:34.524Z,5.70
2023-03-11T06:56:13.483Z,5.20
2023-03-11T06:59:19.262Z,4.00
2023-03-11T07:01:47.639Z,4.50
2023-03-11T07:04:24.137Z,4.20
2023-03-11T07:07:41.630Z,4.40
2023-03-11T07:10:11.289Z,4.30
2023-03-11T07:12:39.524Z,5.80
2023-03-11T07:15:16.301Z,4.20
2023-03-11T07:17:44.514Z,4.10
2023-03-11T07:20:13.001Z,4.60
2023-03-11T07:22:40.979Z,5.20
2023-03-11T07:25:09.266Z,5.00
2023-03-11T07:27:37.377Z,4.80
2023-03-11T07:30:05.885Z,5.00
2023-03-11T07:32:33.863Z,5.00
2023-03-11T07:35:01.967Z,4.90
2023-03-11T07:37:30.071Z,5.30
2023-03-11T07:39:58.147Z,4.50
2023-03-11T07:42:26.261Z,6.70
2023-03-11T07:44:55.212Z,11.80
2023-03-11T07:47:24.818Z,9.40
2023-03-11T07:49:57.324Z,7.90
2023-03-11T07:52:25.290Z,7.90
2023-03-11T07:54:56.736Z,6.60
2023-03-11T07:57:27.905Z,5.90
2023-03-11T07:59:55.951Z,6.30
2023-03-11T08:02:24.194Z,6.10
2023-03-11T08:04:52.150Z,5.90
2023-03-11T08:07:21.044Z,6.10
2023-03-11T08:09:49.303Z,5.80
2023-03-11T08:12:17.374Z,5.80
2023-03-11T08:14:45.395Z,6.20
2023-03-11T08:17:13.460Z,5.60
2023-03-11T08:19:41.328Z,6.10
2023-03-11T08:22:09.244Z,5.60
2023-03-11T08:24:37.377Z,7.30
2023-03-11T08:27:05.785Z,10.40
2023-03-11T08:29:34.027Z,20.70
2023-03-11T08:32:03.943Z,29.00
2023-03-11T08:34:33.042Z,13.90
2023-03-11T08:37:01.616Z,11.50
2023-03-11T08:39:29.562Z,6.10
2023-03-11T08:41:57.560Z,7.00
2023-03-11T08:44:25.481Z,6.80
2023-03-11T08:46:53.594Z,6.30
2023-03-11T08:49:24.014Z,9.90
2023-03-11T08:51:54.122Z,10.30
2023-03-11T08:54:22.446Z,9.60
2023-03-11T08:56:52.735Z,7.30
2023-03-11T08:59:20.800Z,9.30
2023-03-11T09:01:48.875Z,7.30
2023-03-11T09:04:17.080Z,8.60
2023-03-11T09:06:45.252Z,11.40
2023-03-11T09:09:13.420Z,8.30
2023-03-11T09:11:42.094Z,7.90
2023-03-11T09:14:10.056Z,13.60
2023-03-11T09:16:38.148Z,8.70
2023-03-11T09:19:07.813Z,10.80
2023-03-11T09:21:37.114Z,10.90
2023-03-11T09:24:06.028Z,7.60
2023-03-11T09:26:34.127Z,9.50
2023-03-11T09:29:02.209Z,9.80
2023-03-11T09:31:30.420Z,10.10
2023-03-11T09:33:58.538Z,9.70
2023-03-11T09:36:26.576Z,12.80
2023-03-11T09:38:54.712Z,13.90
2023-03-11T09:41:55.261Z,8.10
2023-03-11T09:44:42.408Z,6.90
2023-03-11T09:47:25.594Z,7.10
2023-03-11T09:50:15.254Z,7.40
2023-03-11T09:52:45.203Z,9.30
2023-03-11T09:55:34.202Z,10.10
2023-03-11T09:58:09.939Z,9.10
2023-03-11T10:00:38.244Z,8.70
2023-03-11T10:03:15.616Z,7.70
2023-03-11T10:05:45.442Z,7.80
2023-03-11T10:08:24.162Z,7.40
2023-03-11T10:11:13.092Z,8.10
2023-03-11T10:14:25.123Z,11.20
2023-03-11T10:16:57.574Z,13.30
2023-03-11T10:19:52.084Z,10.50
2023-03-11T10:22:27.917Z,11.40
2023-03-11T10:25:05.572Z,11.30
2023-03-11T10:27:49.141Z,9.60
2023-03-11T10:30:45.512Z,10.70
2023-03-11T10:33:25.630Z,12.10
2023-03-11T10:35:56.963Z,11.30
2023-03-11T10:38:35.494Z,12.00
2023-03-11T10:41:11.216Z,11.70
2023-03-11T10:43:45.219Z,11.70
2023-03-11T10:46:21.292Z,15.30
2023-03-11T10:48:49.357Z,16.50
2023-03-11T10:51:23.005Z,13.00
2023-03-11T10:53:53.897Z,12.10
2023-03-11T10:56:36.265Z,12.20
2023-03-11T10:59:06.519Z,16.20
2023-03-11T11:01:34.613Z,19.70
2023-03-11T11:04:02.859Z,27.00
2023-03-11T11:06:37.558Z,31.90
2023-03-11T11:09:21.293Z,24.40
2023-03-11T11:12:12.306Z,13.80
2023-03-11T11:14:52.075Z,11.90
2023-03-11T11:17:25.964Z,11.10
2023-03-11T11:19:56.988Z,15.00
2023-03-11T11:22:25.987Z,11.80
2023-03-11T11:24:56.013Z,14.00
2023-03-11T11:27:26.730Z,12.60
2023-03-11T11:30:09.851Z,13.30
2023-03-11T11:32:38.352Z,14.50
2023-03-11T11:35:07.946Z,12.20
2023-03-11T11:37:39.603Z,12.00
2023-03-11T11:40:30.005Z,15.60
2023-03-11T11:43:12.198Z,10.70
2023-03-11T11:45:42.952Z,9.70
2023-03-11T11:48:22.803Z,8.70
2023-03-11T11:51:15.459Z,7.70
2023-03-11T11:53:57.741Z,8.90
2023-03-11T11:56:26.960Z,9.10
2023-03-11T11:58:55.626Z,8.10
2023-03-11T12:01:37.088Z,8.10
2023-03-11T12:04:31.775Z,6.80
2023-03-11T12:07:08.478Z,8.70
2023-03-11T12:09:43.599Z,7.90
2023-03-11T12:12:33.126Z,7.60
2023-03-11T12:15:21.150Z,6.70
2023-03-11T12:17:52.123Z,8.00
2023-03-11T12:20:56.262Z,7.40
2023-03-11T12:23:43.018Z,7.80
2023-03-11T12:26:20.278Z,8.20
2023-03-11T12:28:57.732Z,8.10
2023-03-11T12:31:32.101Z,8.90
2023-03-11T12:34:03.320Z,8.50
2023-03-11T12:36:34.777Z,8.20
2023-03-11T12:39:06.189Z,8.20
2023-03-11T12:41:41.344Z,9.00
2023-03-11T12:44:39.416Z,9.20
2023-03-11T12:47:35.682Z,7.90
2023-03-11T12:50:43.768Z,8.50
2023-03-11T12:53:18.101Z,8.00
2023-03-11T12:56:40.587Z,8.30
2023-03-11T12:59:45.493Z,8.40
2023-03-11T13:02:54.825Z,9.40
2023-03-11T13:05:59.676Z,8.40
2023-03-11T13:08:34.334Z,9.90
2023-03-11T13:11:34.209Z,9.90
2023-03-11T13:14:23.963Z,8.90
2023-03-11T13:16:52.168Z,9.40
2023-03-11T13:19:55.657Z,10.40
2023-03-11T13:22:42.629Z,10.20
2023-03-11T13:25:49.930Z,9.70
2023-03-11T13:28:44.351Z,9.90
2023-03-11T13:31:38.464Z,9.30
2023-03-11T13:34:38.540Z,8.90
2023-03-11T13:37:31.176Z,9.80
2023-03-11T13:40:02.551Z,8.90
2023-03-11T13:42:35.748Z,11.10
2023-03-11T13:45:06.945Z,8.40
2023-03-11T13:47:36.856Z,9.50
2023-03-11T13:50:22.881Z,9.90
2023-03-11T13:52:53.871Z,9.30
2023-03-11T13:55:28.128Z,8.70
2023-03-11T13:57:57.482Z,10.00
2023-03-11T14:00:29.074Z,7.70
2023-03-11T14:03:01.360Z,9.50
2023-03-11T14:05:35.419Z,8.40
2023-03-11T14:08:13.662Z,8.80
2023-03-11T14:10:52.207Z,8.10
2023-03-11T14:13:20.816Z,9.70
2023-03-11T14:15:57.669Z,10.00
2023-03-11T14:18:30.555Z,9.30
2023-03-11T14:20:59.687Z,11.40
2023-03-11T14:23:33.377Z,12.20
2023-03-11T14:26:05.387Z,8.80
2023-03-11T14:28:37.220Z,9.20
2023-03-11T14:31:05.792Z,9.40
2023-03-11T14:33:33.728Z,11.20
2023-03-11T14:36:11.409Z,11.40
2023-03-11T14:38:43.821Z,11.30
2023-03-11T14:41:15.634Z,12.00
2023-03-11T14:43:49.318Z,10.40
2023-03-11T14:46:25.760Z,9.90
2023-03-11T14:48:56.467Z,9.30
2023-03-11T14:51:31.944Z,12.90
2023-03-11T14:54:08.577Z,12.10
2023-03-11T14:56:42.175Z,14.00
2023-03-11T14:59:29.127Z,14.00
2023-03-11T15:02:03.112Z,14.30
2023-03-11T15:04:34.550Z,13.30
2023-03-11T15:07:04.685Z,14.20
2023-03-11T15:09:33.167Z,14.00
2023-03-11T15:12:04.341Z,13.00
2023-03-11T15:14:38.054Z,13.10
2023-03-11T15:17:41.334Z,13.80
2023-03-11T15:20:24.567Z,14.40
2023-03-11T15:23:00.715Z,12.70
2023-03-11T15:25:38.838Z,14.70
2023-03-11T15:28:27.547Z,16.10
2023-03-11T15:31:15.689Z,14.60
2023-03-11T15:33:44.478Z,11.90
2023-03-11T15:36:31.195Z,12.50
2023-03-11T15:39:15.268Z,11.40
2023-03-11T15:41:57.673Z,11.80
2023-03-11T15:44:30.938Z,14.10
2023-03-11T15:47:01.977Z,14.90
2023-03-11T15:49:30.470Z,19.30
2023-03-11T15:52:00.060Z,15.10
2023-03-11T15:54:28.788Z,14.00
2023-03-11T15:56:58.612Z,14.40
2023-03-11T15:59:28.026Z,13.10
2023-03-11T16:01:56.049Z,13.40
2023-03-11T16:04:24.248Z,14.30
2023-03-11T16:07:07.144Z,16.60
2023-03-11T16:09:36.270Z,13.10
2023-03-11T16:12:14.195Z,14.30
2023-03-11T16:14:42.326Z,12.70
2023-03-11T16:17:14.273Z,14.10
2023-03-11T16:19:43.114Z,17.00
2023-03-11T16:22:31.143Z,16.00
2023-03-11T16:25:00.048Z,14.40
2023-03-11T16:27:28.303Z,14.10
2023-03-11T16:29:56.693Z,15.00
2023-03-11T16:32:24.773Z,13.20
2023-03-11T16:34:52.671Z,13.70
2023-03-11T16:37:21.266Z,13.50
2023-03-11T16:39:49.159Z,12.70
2023-03-11T16:42:26.167Z,17.50
2023-03-11T16:44:54.025Z,16.60
2023-03-11T16:47:21.884Z,14.80
2023-03-11T16:49:53.468Z,15.60
2023-03-11T16:52:23.098Z,14.00
2023-03-11T16:54:51.493Z,14.80
2023-03-11T16:57:19.454Z,15.60
2023-03-11T16:59:47.366Z,14.80
2023-03-11T17:02:15.497Z,14.10
2023-03-11T17:04:43.536Z,13.90
2023-03-11T17:07:11.868Z,12.20
2023-03-11T17:09:39.946Z,13.50
2023-03-11T17:12:08.279Z,12.00
2023-03-11T17:14:36.195Z,11.20
2023-03-11T17:17:04.280Z,12.00
2023-03-11T17:19:32.229Z,12.30
2023-03-11T17:22:00.456Z,12.20
2023-03-11T17:24:29.785Z,12.50
2023-03-11T17:26:57.747Z,12.20
2023-03-11T17:29:25.789Z,12.00
2023-03-11T17:31:53.818Z,12.90
2023-03-11T17:34:21.883Z,13.60
2023-03-11T17:36:49.945Z,13.90
2023-03-11T17:39:18.037Z,13.40
2023-03-11T17:41:46.768Z,12.80
2023-03-11T17:44:15.522Z,13.30
2023-03-11T17:46:43.631Z,13.60
2023-03-11T17:49:14.605Z,12.80
2023-03-11T17:51:42.683Z,15.50
2023-03-11T17:54:10.674Z,14.50
2023-03-11T17:56:39.171Z,12.60
2023-03-11T17:59:07.129Z,14.70
2023-03-11T18:01:35.308Z,30.40
2023-03-11T18:04:03.312Z,18.40
2023-03-11T18:06:31.563Z,15.30
2023-03-11T18:08:59.712Z,14.70
2023-03-11T18:11:28.426Z,13.60
2023-03-11T18:13:56.503Z,14.10
2023-03-11T18:16:28.785Z,16.50
2023-03-11T18:18:58.635Z,17.20
2023-03-11T18:21:30.237Z,17.20
2023-03-11T18:24:00.526Z,13.60
2023-03-11T18:26:30.090Z,14.10
2023-03-11T18:29:00.040Z,13.80
2023-03-11T18:31:29.758Z,14.80
2023-03-11T18:34:03.692Z,13.60
2023-03-11T18:36:36.145Z,14.70
2023-03-11T18:39:05.311Z,14.80
2023-03-11T18:41:35.540Z,16.40
2023-03-11T18:44:04.140Z,14.50
2023-03-11T18:46:32.907Z,15.30
2023-03-11T18:49:03.559Z,16.20
2023-03-11T18:51:32.898Z,14.40
2023-03-11T18:54:02.037Z,16.80
2023-03-11T18:56:33.643Z,15.30
2023-03-11T18:59:01.761Z,14.50
2023-03-11T19:01:31.068Z,14.70
2023-03-11T19:04:00.324Z,15.90
2023-03-11T19:06:29.701Z,17.10
2023-03-11T19:08:58.334Z,17.30
2023-03-11T19:11:26.571Z,15.90
2023-03-11T19:13:55.031Z,15.90
2023-03-11T19:16:26.081Z,18.40
2023-03-11T19:18:55.310Z,18.60
2023-03-11T19:21:25.938Z,15.70
2023-03-11T19:23:55.908Z,16.90
2023-03-11T19:26:43.744Z,15.80
2023-03-11T19:29:14.853Z,17.00
2023-03-11T19:31:43.919Z,14.90
2023-03-11T19:34:12.600Z,14.70
2023-03-11T19:36:40.858Z,12.40
2023-03-11T19:39:09.291Z,13.20
2023-03-11T19:41:37.905Z,14.30
2023-03-11T19:44:07.409Z,14.30
2023-03-11T19:46:36.478Z,14.90
2023-03-11T19:49:04.828Z,12.70
2023-03-11T19:51:48.695Z,14.00
2023-03-11T19:54:19.018Z,15.80
2023-03-11T19:56:48.213Z,14.50
2023-03-11T19:59:16.313Z,13.90
2023-03-11T20:01:44.440Z,14.70
2023-03-11T20:04:12.733Z,15.60
2023-03-11T20:06:40.866Z,16.70
2023-03-11T20:09:09.040Z,18.10
2023-03-11T20:11:40.822Z,21.60
2023-03-11T20:14:10.261Z,21.00
2023-03-11T20:16:38.443Z,19.40
2023-03-11T20:19:07.349Z,20.70
2023-03-11T20:21:39.412Z,20.20
2023-03-11T20:24:08.487Z,20.80
2023-03-11T20:26:37.549Z,22.30
2023-03-11T20:29:06.624Z,20.70
2023-03-11T20:31:36.446Z,21.70
2023-03-11T20:34:04.630Z,19.70
2023-03-11T20:36:34.012Z,19.40
2023-03-11T20:39:03.392Z,20.40
2023-03-11T20:41:40.281Z,19.30
2023-03-11T20:44:11.601Z,18.40
2023-03-11T20:46:45.570Z,19.00
2023-03-11T20:49:22.351Z,24.40
2023-03-11T20:51:57.462Z,23.80
2023-03-11T20:54:30.947Z,25.00
2023-03-11T20:57:04.354Z,21.80
2023-03-11T20:59:32.561Z,31.10
2023-03-11T21:02:48.387Z,24.50
2023-03-11T21:07:44.802Z,23.80
2023-03-11T21:10:13.039Z,22.90
2023-03-11T21:12:40.993Z,24.60
2023-03-11T21:15:10.250Z,23.70
2023-03-11T21:17:38.465Z,25.80
2023-03-11T21:20:06.895Z,22.20
2023-03-11T21:22:35.182Z,20.80
2023-03-11T21:25:03.646Z,19.50
2023-03-11T21:27:31.668Z,21.20
2023-03-11T21:30:00.157Z,21.20
2023-03-11T21:32:33.515Z,20.60
2023-03-11T21:35:02.436Z,20.70
2023-03-11T21:37:30.560Z,18.70
2023-03-11T21:39:58.731Z,18.10
2023-03-11T21:42:29.346Z,16.80
2023-03-11T21:44:57.445Z,16.30
2023-03-11T21:47:25.553Z,15.50
2023-03-11T21:49:53.554Z,17.20
2023-03-11T21:52:21.725Z,16.80
2023-03-11T21:54:49.674Z,17.10
2023-03-11T21:57:17.575Z,16.90
2023-03-11T22:00:08.323Z,17.10
2023-03-11T22:02:36.914Z,16.50
2023-03-11T22:05:05.201Z,16.20
2023-03-11T22:07:33.423Z,18.90
2023-03-11T22:10:01.474Z,16.80
2023-03-11T22:12:29.556Z,17.80
2023-03-11T22:14:57.628Z,17.40
2023-03-11T22:17:25.752Z,19.10
2023-03-11T22:19:53.790Z,17.30
2023-03-11T22:22:21.839Z,17.50
2023-03-11T22:24:49.766Z,16.20
2023-03-11T22:27:17.701Z,16.10
2023-03-11T22:29:45.588Z,15.50
2023-03-11T22:32:13.734Z,17.80
2023-03-11T22:34:43.224Z,14.70
2023-03-11T22:37:11.125Z,15.00
2023-03-11T22:39:39.120Z,16.80
2023-03-11T22:42:07.317Z,18.40
2023-03-11T22:44:35.420Z,18.90
2023-03-11T22:47:03.517Z,18.00
2023-03-11T22:49:31.733Z,21.50
2023-03-11T22:51:59.759Z,22.50
2023-03-11T22:54:27.971Z,22.30
2023-03-11T22:56:56.257Z,21.80
2023-03-11T22:59:27.116Z,19.30
2023-03-11T23:02:01.031Z,21.30
2023-03-11T23:04:29.174Z,21.30
2023-03-11T23:06:57.136Z,18.90
2023-03-11T23:09:25.650Z,17.80
2023-03-11T23:11:55.415Z,20.30
2023-03-11T23:14:28.041Z,17.00
2023-03-11T23:17:02.145Z,19.60
2023-03-11T23:19:30.268Z,19.10
2023-03-11T23:21:58.270Z,15.30
2023-03-11T23:24:26.296Z,15.90
2023-03-11T23:26:54.177Z,16.80
2023-03-11T23:29:22.216Z,18.20
2023-03-11T23:31:50.160Z,16.10
2023-03-11T23:34:18.099Z,18.80
2023-03-11T23:36:46.022Z,17.70
2023-03-11T23:39:13.955Z,16.50
2023-03-11T23:41:41.891Z,14.70
2023-03-11T23:44:09.927Z,15.10
2023-03-11T23:46:38.037Z,15.60
2023-03-11T23:49:06.039Z,15.50
2023-03-11T23:51:34.014Z,17.30
2023-03-11T23:54:01.895Z,19.40
2023-03-11T23:56:29.868Z,16.60
2023-03-11T23:58:57.904Z,17.50
